LEEV weather

E. Castellanos-Villacastín Airport
Villacastin, Castilla y León, Spain

Public forecast

Using degrees Celsius for public forecast. Weather courtesy of forecast.io.

Closest aviation weather report (METAR) to E. Castellanos-Villacastín Airport

Report is more than 2 hours old.

Closest report is Getafe Air Base, 44.7 nm (82.9 km) SE. Retrieved 2019/10/13 18:00 UTC (4 hours ago):

LEGT 131800Z 00000KT CAVOK 22/14 Q1015

Closest aviation forecast (TAF) to E. Castellanos-Villacastín Airport

Forecast is more than 12 hours old.

Closest forecast is Getafe Air Base, 44.7 nm (82.9 km) SE. Retrieved 2018/03/28 12:33 UTC (2 years ago):

TAF LEGT 281100Z 2812/2824 24010KT CAVOK PROB40 TEMPO 2814/2818 27015G25KT TEMPO 2820/2824 28008KT